Charlottesville Albemarle Airport
KCHO : now visible

Airfield :











YOU CAN JOIN US ON...

 
LOGIN :

Register | Disclaimer

   EN    FR    IT 

 









Legend :    VFR   Marginal VFR   IFR   Intensive IFR   Very Intensive IFR
Visi :
Ceiling :
>= 8 km
>= 3000ft
5 to 8 km
1000 to 3000 ft
1500m to 5 km
500 to 1000 ft
800 to 1500m
200 to 500 ft
< 800m
< 200 ft
Symbols :   Thunderstorms  Fog  Heavy snow  Heavy precipitations  Wind > 20 kt






- Airport Elevation : 639 ft
- IATA code : CHO


KCHO - Charlottesville Albemarle

CURRENT METAR :
  • 050053Z 00000KT 10SM FEW110 28/21 A2992 RMK AO2 SLP124 T02780211

EXPIRED METARs :
  • 042353Z 00000KT 10SM SCT095 29/21 A2991 RMK AO2 LTG DSNT W SLP118 T02890206 10344 20289 56001
  • 042253Z 04004KT 10SM BKN080 BKN090 33/19 A2991 RMK AO2 LTG DSNT SW SLP120 T03280189

TAF KCHO
Valid from the 05 at 00:00 until the 06 at 00:00 UTC


042339Z 0500/0524 04004KT P6SM VCSH BKN080
FM050300 VRB03KT P6SM BKN060
FM050800 00000KT 4SM BR SCT020 BKN060
FM051200 00000KT P6SM SCT020 BKN050
FM051400 VRB03KT P6SM FEW035 SCT060
FM052100 16005KT P6SM BKN060
KZDC FIR / North America



MET'MAP, your aeronautical weather chart ! - Copyright ORBIFLY December 2007 - Disclaimer

ORBIFLY MET'MAP TEAM :

Programming & Development : Alexandra Zaïnal
Concept & original design : Baudouin d'Aumeries
Assistance for programming : Marc-Olivier Méhu
Technical & hardware support : Manuel Goepfert

Contact : metmap@orbifly.com




SOURCES & CREDITS :

   NOAA       Earth
Advisory